sensor_id;sensor_type;location;lat;lon;timestamp;P1;durP1;ratioP1;P2;durP2;ratioP2
55483;SDS011;41345;51.704;5.146;2023-02-03T08:39:07;7.00;;;2.00;;
55483;SDS011;41345;51.704;5.146;2023-02-03T08:44:07;8.75;;;1.80;;
55483;SDS011;41345;51.704;5.146;2023-02-03T08:49:08;9.13;;;1.67;;
55483;SDS011;41345;51.704;5.146;2023-02-03T08:54:09;9.52;;;1.83;;
55483;SDS011;41345;51.704;5.146;2023-02-03T08:59:09;8.95;;;2.05;;
55483;SDS011;41345;51.704;5.146;2023-02-03T09:04:10;8.90;;;2.03;;
55483;SDS011;41345;51.704;5.146;2023-02-03T09:09:11;8.35;;;2.08;;
55483;SDS011;41345;51.704;5.146;2023-02-03T09:14:11;7.13;;;2.03;;
55483;SDS011;41345;51.704;5.146;2023-02-03T09:19:12;8.10;;;1.83;;
55483;SDS011;41345;51.704;5.146;2023-02-03T09:24:12;7.03;;;1.50;;
55483;SDS011;41345;51.704;5.146;2023-02-03T09:29:12;8.98;;;1.73;;
55483;SDS011;41345;51.704;5.146;2023-02-03T09:34:13;6.82;;;1.70;;
55483;SDS011;41345;51.704;5.146;2023-02-03T09:39:13;6.20;;;1.60;;
55483;SDS011;41345;51.704;5.146;2023-02-03T09:53:05;7.45;;;1.73;;
55483;SDS011;41345;51.704;5.146;2023-02-03T10:11:42;37.08;;;34.13;;
55483;SDS011;41345;51.704;5.146;2023-02-03T10:16:52;60.08;;;55.80;;
55483;SDS011;41345;51.704;5.146;2023-02-03T10:24:15;28.50;;;23.70;;
55483;SDS011;41345;51.704;5.146;2023-02-03T10:34:20;18.27;;;9.90;;
55483;SDS011;41345;51.704;5.146;2023-02-03T10:44:35;18.92;;;11.88;;
55483;SDS011;41345;51.704;5.146;2023-02-03T10:49:37;19.10;;;14.07;;
55483;SDS011;41345;51.704;5.146;2023-02-03T10:54:37;16.73;;;13.98;;
55483;SDS011;41345;51.704;5.146;2023-02-03T10:59:40;24.42;;;18.23;;
55483;SDS011;41345;51.704;5.146;2023-02-03T11:04:40;19.02;;;17.05;;
55483;SDS011;41345;51.704;5.146;2023-02-03T11:09:41;21.98;;;19.95;;
55483;SDS011;41345;51.704;5.146;2023-02-03T11:14:42;22.75;;;20.83;;
55483;SDS011;41345;51.704;5.146;2023-02-03T11:19:44;25.40;;;23.02;;
55483;SDS011;41345;51.704;5.146;2023-02-03T11:24:45;22.73;;;20.70;;
55483;SDS011;41345;51.704;5.146;2023-02-03T11:29:46;25.20;;;23.13;;
55483;SDS011;41345;51.704;5.146;2023-02-03T11:34:55;24.25;;;21.90;;
55483;SDS011;41345;51.704;5.146;2023-02-03T11:40:01;23.55;;;21.05;;
55483;SDS011;41345;51.704;5.146;2023-02-03T11:45:12;27.27;;;24.60;;
55483;SDS011;41345;51.704;5.146;2023-02-03T11:55:33;27.88;;;24.98;;
55483;SDS011;41345;51.704;5.146;2023-02-03T12:26:24;32.05;;;29.52;;
55483;SDS011;41345;51.704;5.146;2023-02-03T12:31:41;34.80;;;31.80;;
55483;SDS011;41345;51.704;5.146;2023-02-03T12:36:47;31.35;;;28.70;;
55483;SDS011;41345;51.704;5.146;2023-02-03T12:41:50;37.47;;;34.30;;
55483;SDS011;41345;51.704;5.146;2023-02-03T12:47:06;33.85;;;30.40;;
55483;SDS011;41345;51.704;5.146;2023-02-03T12:52:13;31.35;;;28.88;;
55483;SDS011;41345;51.704;5.146;2023-02-03T13:02:17;27.80;;;25.20;;
55483;SDS011;41345;51.704;5.146;2023-02-03T13:07:29;30.52;;;27.73;;
55483;SDS011;41345;51.704;5.146;2023-02-03T13:12:34;27.50;;;25.73;;
55483;SDS011;41345;51.704;5.146;2023-02-03T13:22:47;27.27;;;24.88;;
55483;SDS011;41345;51.704;5.146;2023-02-03T13:33:00;33.10;;;30.80;;
55483;SDS011;41345;51.704;5.146;2023-02-03T13:38:51;39.10;;;36.03;;
55483;SDS011;41345;51.704;5.146;2023-02-03T13:43:28;33.22;;;30.63;;
55483;SDS011;41345;51.704;5.146;2023-02-03T13:48:31;37.05;;;34.00;;
55483;SDS011;41345;51.704;5.146;2023-02-03T13:53:32;39.03;;;36.00;;
55483;SDS011;41345;51.704;5.146;2023-02-03T13:58:35;41.15;;;38.40;;
55483;SDS011;41345;51.704;5.146;2023-02-03T14:13:36;50.22;;;46.78;;
55483;SDS011;41345;51.704;5.146;2023-02-03T14:18:42;57.17;;;52.70;;
55483;SDS011;41345;51.704;5.146;2023-02-03T14:23:45;56.65;;;53.15;;
55483;SDS011;41345;51.704;5.146;2023-02-03T14:28:47;58.38;;;54.28;;
55483;SDS011;41345;51.704;5.146;2023-02-03T14:38:48;51.55;;;47.67;;
55483;SDS011;41345;51.704;5.146;2023-02-03T14:43:50;46.95;;;43.55;;
55483;SDS011;41345;51.704;5.146;2023-02-03T14:49:10;44.60;;;41.53;;
55483;SDS011;41345;51.704;5.146;2023-02-03T14:54:23;52.63;;;49.05;;
55483;SDS011;41345;51.704;5.146;2023-02-03T15:04:50;59.53;;;54.72;;
55483;SDS011;41345;51.704;5.146;2023-02-03T15:09:51;56.90;;;52.03;;
55483;SDS011;41345;51.704;5.146;2023-02-03T15:14:52;55.47;;;50.55;;
55483;SDS011;41345;51.704;5.146;2023-02-03T15:19:53;48.90;;;44.53;;
55483;SDS011;41345;51.704;5.146;2023-02-03T15:24:57;49.30;;;44.80;;
55483;SDS011;41345;51.704;5.146;2023-02-03T15:29:58;48.08;;;43.00;;
55483;SDS011;41345;51.704;5.146;2023-02-03T15:35:14;46.83;;;42.05;;
55483;SDS011;41345;51.704;5.146;2023-02-03T15:40:17;43.35;;;38.88;;
55483;SDS011;41345;51.704;5.146;2023-02-03T15:50:31;41.67;;;37.97;;
55483;SDS011;41345;51.704;5.146;2023-02-03T16:00:37;40.33;;;36.50;;
55483;SDS011;41345;51.704;5.146;2023-02-03T16:05:38;39.95;;;36.65;;
55483;SDS011;41345;51.704;5.146;2023-02-03T16:10:38;44.15;;;38.35;;
55483;SDS011;41345;51.704;5.146;2023-02-03T16:15:39;42.40;;;38.80;;
55483;SDS011;41345;51.704;5.146;2023-02-03T16:20:41;43.90;;;40.10;;
